createdAt,value
2018-10-19T00:00:20.235Z,28.87
2018-10-19T00:02:48.671Z,29.10
2018-10-19T00:05:17.218Z,28.73
2018-10-19T00:07:45.750Z,30.00
2018-10-19T00:10:14.203Z,28.83
2018-10-19T00:12:42.644Z,29.93
2018-10-19T00:15:11.282Z,29.50
2018-10-19T00:17:39.908Z,31.10
2018-10-19T00:20:08.672Z,29.43
2018-10-19T00:22:37.122Z,29.23
2018-10-19T00:25:06.150Z,29.43
2018-10-19T00:27:34.720Z,30.70
2018-10-19T00:30:03.172Z,29.83
2018-10-19T00:32:31.683Z,30.13
2018-10-19T00:35:00.211Z,30.57
2018-10-19T00:37:29.316Z,31.67
2018-10-19T00:39:57.775Z,32.23
2018-10-19T00:42:26.224Z,32.40
2018-10-19T00:44:54.784Z,30.67
2018-10-19T00:47:23.358Z,29.13
2018-10-19T00:49:51.862Z,29.40
2018-10-19T00:52:20.361Z,29.57
2018-10-19T00:54:48.808Z,29.60
2018-10-19T00:57:17.354Z,29.30
2018-10-19T00:59:46.270Z,28.80
2018-10-19T01:02:14.752Z,30.23
2018-10-19T01:04:43.159Z,28.83
2018-10-19T01:07:11.679Z,29.40
2018-10-19T01:09:40.103Z,28.87
2018-10-19T01:12:08.583Z,28.30
2018-10-19T01:14:37.060Z,28.27
2018-10-19T01:17:05.698Z,28.60
2018-10-19T01:19:34.247Z,29.00
2018-10-19T01:22:03.444Z,29.33
2018-10-19T01:24:31.874Z,27.20
2018-10-19T01:27:00.401Z,27.73
2018-10-19T01:29:28.996Z,30.03
2018-10-19T01:31:57.535Z,29.43
2018-10-19T01:34:26.018Z,29.67
2018-10-19T01:36:54.489Z,28.83
2018-10-19T01:39:22.939Z,30.87
2018-10-19T01:41:51.414Z,30.63
2018-10-19T01:44:19.869Z,30.97
2018-10-19T01:46:49.778Z,30.43
2018-10-19T01:49:19.693Z,30.87
2018-10-19T01:51:48.327Z,31.90
2018-10-19T01:54:16.772Z,32.17
2018-10-19T01:56:45.228Z,30.87
2018-10-19T01:59:13.819Z,31.73
2018-10-19T02:01:42.391Z,30.83
2018-10-19T02:04:11.120Z,30.90
2018-10-19T02:06:39.557Z,30.67
2018-10-19T02:09:08.756Z,32.73
2018-10-19T02:11:37.311Z,31.93
2018-10-19T02:14:05.947Z,31.13
2018-10-19T02:16:34.547Z,32.47
2018-10-19T02:19:02.986Z,32.73
2018-10-19T02:21:31.431Z,31.47
2018-10-19T02:23:59.897Z,31.17
2018-10-19T02:26:28.440Z,31.83
2018-10-19T02:28:56.915Z,29.90
2018-10-19T02:31:25.576Z,30.07
2018-10-19T02:33:54.065Z,30.97
2018-10-19T02:36:22.560Z,29.90
2018-10-19T02:38:51.013Z,30.03
2018-10-19T02:41:19.555Z,29.30
2018-10-19T02:43:48.079Z,29.70
2018-10-19T02:46:16.707Z,31.23
2018-10-19T02:48:45.185Z,30.47
2018-10-19T02:51:13.851Z,30.33
2018-10-19T02:53:42.467Z,30.47
2018-10-19T02:56:11.411Z,30.30
2018-10-19T02:58:39.877Z,31.70
2018-10-19T03:01:08.309Z,32.60
2018-10-19T03:03:36.811Z,31.23
2018-10-19T03:06:05.575Z,31.87
2018-10-19T03:08:34.063Z,31.73
2018-10-19T03:11:02.569Z,33.60
2018-10-19T03:13:31.258Z,33.70
2018-10-19T03:15:59.739Z,33.57
2018-10-19T03:18:28.258Z,32.40
2018-10-19T03:20:56.744Z,34.13
2018-10-19T03:23:25.485Z,33.83
2018-10-19T03:25:53.943Z,32.93
2018-10-19T03:28:22.447Z,35.17
2018-10-19T03:30:50.944Z,34.70
2018-10-19T03:33:19.672Z,35.97
2018-10-19T03:35:48.178Z,36.10
2018-10-19T03:38:16.613Z,34.97
2018-10-19T03:40:45.118Z,35.23
2018-10-19T03:43:13.562Z,35.93
2018-10-19T03:45:42.080Z,35.00
2018-10-19T03:48:10.562Z,35.83
2018-10-19T03:50:39.043Z,35.03
2018-10-19T03:53:07.680Z,37.67
2018-10-19T03:55:36.303Z,34.80
2018-10-19T03:58:04.917Z,36.30
2018-10-19T04:00:33.359Z,35.23
2018-10-19T04:03:01.925Z,36.07
2018-10-19T04:05:30.516Z,36.90
2018-10-19T04:07:59.019Z,35.27
2018-10-19T04:10:27.456Z,36.63
2018-10-19T04:12:55.893Z,36.47
2018-10-19T04:15:24.725Z,37.40
2018-10-19T04:17:53.254Z,37.03
2018-10-19T04:20:21.841Z,36.27
2018-10-19T04:22:54.565Z,36.57
2018-10-19T04:25:23.319Z,36.73
2018-10-19T04:27:51.798Z,37.47
2018-10-19T04:30:20.208Z,38.20
2018-10-19T04:32:48.650Z,37.10
2018-10-19T04:35:17.318Z,38.33
2018-10-19T04:37:46.177Z,37.40
2018-10-19T04:40:20.600Z,36.43
2018-10-19T04:42:49.315Z,36.77
2018-10-19T04:45:18.407Z,36.83
2018-10-19T04:47:47.130Z,39.57
2018-10-19T04:50:15.782Z,41.53
2018-10-19T04:52:44.261Z,39.63
2018-10-19T04:55:16.492Z,40.07
2018-10-19T04:57:44.992Z,39.40
2018-10-19T05:00:14.084Z,39.20
2018-10-19T05:02:42.627Z,39.73
2018-10-19T05:05:11.444Z,39.13
2018-10-19T05:07:40.183Z,39.00
2018-10-19T05:10:09.316Z,38.40
2018-10-19T05:12:38.147Z,39.93
2018-10-19T05:15:08.352Z,44.40
2018-10-19T05:17:37.051Z,47.10
2018-10-19T05:20:06.807Z,43.97
2018-10-19T05:22:35.515Z,45.23
2018-10-19T05:25:04.147Z,44.60
2018-10-19T05:27:32.899Z,45.40
2018-10-19T05:30:01.343Z,49.03
2018-10-19T05:32:29.775Z,45.40
2018-10-19T05:34:58.283Z,44.20
2018-10-19T05:37:26.891Z,47.50
2018-10-19T05:39:55.402Z,45.40
2018-10-19T05:42:23.928Z,43.10
2018-10-19T05:44:52.518Z,47.47
2018-10-19T05:47:20.982Z,45.17
2018-10-19T05:49:49.449Z,41.30
2018-10-19T05:52:17.908Z,44.30
2018-10-19T05:54:46.420Z,40.87
2018-10-19T05:57:14.901Z,41.07
2018-10-19T05:59:43.585Z,43.10
2018-10-19T06:02:12.341Z,40.30
2018-10-19T06:04:40.973Z,41.30
2018-10-19T06:07:09.473Z,42.60
2018-10-19T06:09:38.014Z,41.83
2018-10-19T06:12:06.754Z,42.70
2018-10-19T06:14:35.301Z,42.77
2018-10-19T06:17:03.772Z,41.60
2018-10-19T06:19:32.390Z,41.50
2018-10-19T06:22:00.840Z,42.97
2018-10-19T06:24:29.336Z,42.37
2018-10-19T06:26:57.783Z,44.57
2018-10-19T06:29:26.243Z,42.60
2018-10-19T06:31:54.677Z,43.83
2018-10-19T06:34:23.245Z,43.33
2018-10-19T06:36:51.711Z,44.47
2018-10-19T06:39:20.170Z,43.53
2018-10-19T06:41:48.713Z,43.60
2018-10-19T06:44:17.305Z,46.17
2018-10-19T06:46:45.853Z,43.50
2018-10-19T06:49:14.614Z,44.43
2018-10-19T06:51:43.172Z,43.13
2018-10-19T06:54:11.793Z,42.80
2018-10-19T06:56:40.243Z,41.87
2018-10-19T06:59:08.892Z,41.93
2018-10-19T07:01:37.423Z,43.50
2018-10-19T07:04:06.151Z,44.43
2018-10-19T07:06:34.623Z,44.10
2018-10-19T07:09:03.387Z,43.60
2018-10-19T07:11:31.817Z,43.83
2018-10-19T07:14:00.255Z,41.27
2018-10-19T07:16:28.738Z,43.30
2018-10-19T07:18:57.157Z,40.13
2018-10-19T07:21:25.916Z,39.57
2018-10-19T07:23:54.358Z,38.97
2018-10-19T07:26:22.801Z,39.53
2018-10-19T07:28:51.202Z,36.83
2018-10-19T07:31:19.633Z,37.53
2018-10-19T07:33:48.079Z,37.10
2018-10-19T07:36:16.657Z,36.97
2018-10-19T07:38:45.267Z,35.33
2018-10-19T07:41:13.906Z,36.13
2018-10-19T07:43:42.483Z,36.57
2018-10-19T07:46:11.007Z,38.07
2018-10-19T07:48:39.454Z,38.13
2018-10-19T07:51:07.983Z,37.03
2018-10-19T07:53:36.410Z,39.53
2018-10-19T07:56:06.021Z,36.43
2018-10-19T07:58:34.638Z,38.50
2018-10-19T08:01:03.130Z,37.03
2018-10-19T08:03:31.824Z,37.23
2018-10-19T08:06:00.278Z,36.77
2018-10-19T08:08:28.760Z,36.53
2018-10-19T08:10:57.361Z,37.50
2018-10-19T08:13:26.342Z,35.77
2018-10-19T08:15:54.779Z,38.57
2018-10-19T08:18:23.220Z,36.67
2018-10-19T08:20:51.634Z,37.87
2018-10-19T08:23:20.067Z,39.23
2018-10-19T08:25:48.618Z,38.13
2018-10-19T08:28:17.040Z,35.50
2018-10-19T08:30:45.510Z,36.10
2018-10-19T08:33:14.101Z,38.27
2018-10-19T08:35:42.771Z,37.87
2018-10-19T08:38:11.274Z,38.13
2018-10-19T08:40:39.879Z,38.47
2018-10-19T08:43:08.428Z,39.87
2018-10-19T08:45:37.007Z,40.93
2018-10-19T08:48:05.435Z,42.23
2018-10-19T08:50:33.924Z,42.43
2018-10-19T08:53:02.452Z,44.17
2018-10-19T08:55:31.092Z,45.57
2018-10-19T08:57:59.827Z,44.33
2018-10-19T09:00:28.388Z,44.43
2018-10-19T09:02:56.870Z,44.77
2018-10-19T09:05:25.528Z,43.90
2018-10-19T09:07:53.979Z,44.67
2018-10-19T09:10:22.579Z,43.87
2018-10-19T09:12:51.105Z,44.43
2018-10-19T09:15:19.877Z,43.97
2018-10-19T09:17:48.346Z,45.60
2018-10-19T09:20:16.841Z,44.40
2018-10-19T09:22:45.411Z,45.33
2018-10-19T09:25:13.855Z,44.40
2018-10-19T09:27:42.331Z,44.57
2018-10-19T09:30:10.825Z,44.13
2018-10-19T09:32:39.406Z,43.13
2018-10-19T09:35:08.099Z,44.70
2018-10-19T09:37:36.804Z,45.47
2018-10-19T09:40:05.409Z,44.57
2018-10-19T09:42:34.058Z,44.87
2018-10-19T09:45:02.543Z,45.27
2018-10-19T09:47:31.147Z,49.20
2018-10-19T09:49:59.781Z,47.97
2018-10-19T09:52:28.286Z,49.00
2018-10-19T09:54:56.993Z,47.03
2018-10-19T09:57:25.651Z,46.87
2018-10-19T09:59:54.139Z,46.77
2018-10-19T10:02:22.701Z,45.03
2018-10-19T10:04:51.107Z,45.10
2018-10-19T10:07:19.590Z,44.90
2018-10-19T10:09:48.042Z,45.37
2018-10-19T10:12:16.492Z,45.70
2018-10-19T10:14:44.957Z,51.90
2018-10-19T10:17:13.673Z,46.93
2018-10-19T10:19:42.209Z,43.07
2018-10-19T10:22:10.687Z,44.20
2018-10-19T10:24:39.339Z,43.87
2018-10-19T10:27:07.935Z,43.30
2018-10-19T10:29:36.465Z,44.87
2018-10-19T10:32:05.067Z,44.63
2018-10-19T10:34:33.716Z,44.07
2018-10-19T10:37:02.395Z,46.23
2018-10-19T10:39:30.965Z,49.83
2018-10-19T10:41:59.406Z,46.67
2018-10-19T10:44:27.863Z,46.33
2018-10-19T10:46:56.431Z,45.77
2018-10-19T10:49:25.036Z,46.93
2018-10-19T10:51:53.721Z,48.97
2018-10-19T10:54:22.394Z,48.03
2018-10-19T10:56:51.124Z,45.20
2018-10-19T10:59:19.580Z,45.83
2018-10-19T11:01:48.018Z,46.90
2018-10-19T11:04:16.515Z,47.33
2018-10-19T11:06:45.082Z,51.00
2018-10-19T11:09:13.483Z,49.40
2018-10-19T11:11:41.919Z,49.23
2018-10-19T11:14:10.422Z,48.73
2018-10-19T11:16:38.970Z,48.80
2018-10-19T11:19:07.468Z,49.30
2018-10-19T11:21:36.050Z,50.40
2018-10-19T11:24:04.566Z,53.20
2018-10-19T11:26:33.110Z,52.93
2018-10-19T11:29:01.556Z,54.47
2018-10-19T11:31:29.978Z,52.53
2018-10-19T11:33:58.451Z,53.57
2018-10-19T11:36:27.059Z,51.73
2018-10-19T11:38:55.575Z,54.13
2018-10-19T11:41:24.007Z,53.87
2018-10-19T11:43:52.604Z,53.97
2018-10-19T11:46:21.058Z,56.23
2018-10-19T11:48:49.613Z,52.00
2018-10-19T11:51:18.160Z,51.20
2018-10-19T11:53:46.594Z,52.13
2018-10-19T11:56:15.023Z,53.13
2018-10-19T11:58:43.586Z,54.53
2018-10-19T12:01:12.372Z,52.90
2018-10-19T12:03:41.018Z,51.77
2018-10-19T12:06:09.663Z,52.90
2018-10-19T12:08:38.147Z,54.03
2018-10-19T12:11:06.587Z,54.93
2018-10-19T12:13:35.039Z,55.63
2018-10-19T12:16:03.552Z,53.43
2018-10-19T12:18:32.091Z,53.07
2018-10-19T12:21:00.590Z,52.60
2018-10-19T12:23:29.158Z,51.70
2018-10-19T12:25:57.948Z,50.50
2018-10-19T12:28:26.542Z,50.27
2018-10-19T12:30:55.049Z,48.53
2018-10-19T12:33:23.516Z,48.37
2018-10-19T12:35:52.020Z,44.00
2018-10-19T12:38:20.459Z,44.60
2018-10-19T12:40:48.983Z,44.17
2018-10-19T12:43:17.545Z,42.40
2018-10-19T12:46:23.486Z,39.67
2018-10-19T12:48:52.138Z,38.13
2018-10-19T12:51:21.244Z,39.17
2018-10-19T12:53:49.752Z,39.03
2018-10-19T12:56:19.303Z,39.97
2018-10-19T12:58:48.800Z,39.07
2018-10-19T13:01:17.369Z,39.07
2018-10-19T13:03:45.928Z,38.03
2018-10-19T13:06:14.416Z,40.30
2018-10-19T13:08:42.892Z,39.07
2018-10-19T13:11:11.352Z,37.90
2018-10-19T13:13:39.783Z,37.90
2018-10-19T13:16:08.244Z,38.27
2018-10-19T13:18:36.830Z,36.17
2018-10-19T13:21:05.334Z,35.40
2018-10-19T13:23:34.315Z,36.87
2018-10-19T13:26:03.000Z,35.67
2018-10-19T13:28:31.553Z,37.87
2018-10-19T13:30:59.998Z,36.10
2018-10-19T13:33:28.506Z,34.97
2018-10-19T13:35:57.071Z,41.93
2018-10-19T13:38:25.851Z,37.43
2018-10-19T13:40:55.026Z,37.60
2018-10-19T13:43:23.843Z,36.33
2018-10-19T13:45:52.707Z,34.17
2018-10-19T13:48:21.940Z,35.97
2018-10-19T13:50:50.559Z,37.70
2018-10-19T13:53:19.023Z,37.33
2018-10-19T13:55:47.577Z,36.90
2018-10-19T13:58:20.279Z,38.57
2018-10-19T14:00:48.943Z,37.43
2018-10-19T14:03:17.403Z,39.00
2018-10-19T14:05:45.894Z,38.33
2018-10-19T14:08:14.577Z,36.90
2018-10-19T14:10:43.031Z,38.03
2018-10-19T14:13:11.495Z,41.83
2018-10-19T14:15:40.023Z,41.10
2018-10-19T14:18:09.371Z,44.70
2018-10-19T14:20:37.822Z,45.23
2018-10-19T14:23:06.540Z,43.53
2018-10-19T14:25:35.183Z,38.13
2018-10-19T14:28:03.604Z,37.67
2018-10-19T14:30:32.142Z,41.03
2018-10-19T14:33:00.691Z,42.07
2018-10-19T14:35:29.337Z,41.20
2018-10-19T14:37:57.797Z,49.33
2018-10-19T14:40:26.335Z,42.30
2018-10-19T14:42:54.821Z,39.80
2018-10-19T14:45:23.783Z,39.63
2018-10-19T14:47:52.260Z,38.43
2018-10-19T14:50:20.703Z,39.80
2018-10-19T14:52:50.518Z,38.57
2018-10-19T14:55:19.647Z,41.43
2018-10-19T14:57:48.118Z,37.87
2018-10-19T15:00:18.544Z,39.48
2018-10-19T15:02:47.722Z,37.75
2018-10-19T15:05:18.062Z,41.33
2018-10-19T15:07:47.106Z,40.28
2018-10-19T15:10:17.954Z,40.75
2018-10-19T15:12:46.934Z,41.30
2018-10-19T15:15:17.695Z,40.57
2018-10-19T15:17:46.953Z,38.98
2018-10-19T15:20:15.922Z,41.00
2018-10-19T15:22:44.654Z,40.77
2018-10-19T15:25:13.230Z,39.53
2018-10-19T15:27:42.980Z,40.60
2018-10-19T15:30:12.891Z,41.37
2018-10-19T15:32:41.716Z,40.47
2018-10-19T15:35:10.560Z,40.63
2018-10-19T15:37:39.072Z,42.40
2018-10-19T15:40:08.353Z,41.70
2018-10-19T15:42:36.821Z,40.13
2018-10-19T15:45:06.924Z,41.60
2018-10-19T15:47:35.565Z,44.00
2018-10-19T15:50:04.017Z,43.67
2018-10-19T15:52:32.460Z,43.83
2018-10-19T15:55:01.061Z,60.87
2018-10-19T15:57:29.817Z,52.63
2018-10-19T15:59:58.368Z,44.80
2018-10-19T16:02:26.984Z,45.23
2018-10-19T16:04:55.394Z,44.83
2018-10-19T16:07:23.833Z,45.43
2018-10-19T16:09:52.282Z,46.30
2018-10-19T16:12:20.714Z,46.47
2018-10-19T16:14:49.159Z,44.67
2018-10-19T16:17:17.571Z,45.33
2018-10-19T16:19:46.127Z,47.47
2018-10-19T16:22:14.689Z,47.67
2018-10-19T16:24:43.111Z,46.63
2018-10-19T16:27:11.647Z,47.00
2018-10-19T16:29:40.294Z,46.93
2018-10-19T16:32:09.260Z,46.40
2018-10-19T16:34:37.698Z,49.30
2018-10-19T16:37:06.333Z,50.97
2018-10-19T16:39:34.896Z,51.83
2018-10-19T16:42:03.493Z,47.13
2018-10-19T16:44:32.028Z,50.47
2018-10-19T16:47:00.506Z,48.63
2018-10-19T16:49:28.989Z,49.33
2018-10-19T16:51:57.531Z,49.73
2018-10-19T16:54:26.088Z,50.40
2018-10-19T16:56:54.619Z,48.43
2018-10-19T16:59:23.109Z,48.33
2018-10-19T17:01:51.662Z,47.83
2018-10-19T17:04:20.135Z,89.27
2018-10-19T17:06:48.671Z,62.23
2018-10-19T17:09:17.307Z,67.07
2018-10-19T17:11:45.978Z,66.23
2018-10-19T17:14:15.311Z,63.97
2018-10-19T17:16:44.017Z,65.27
2018-10-19T17:19:12.689Z,58.33
2018-10-19T17:21:41.289Z,53.97
2018-10-19T17:24:09.767Z,60.53
2018-10-19T17:26:38.465Z,60.50
2018-10-19T17:29:07.005Z,72.93
2018-10-19T17:31:36.379Z,77.17
2018-10-19T17:34:04.862Z,65.63
2018-10-19T17:36:33.357Z,62.17
2018-10-19T17:39:01.856Z,60.07
2018-10-19T17:41:30.515Z,57.33
2018-10-19T17:43:59.039Z,53.20
2018-10-19T17:46:27.505Z,49.13
2018-10-19T17:48:56.007Z,49.50
2018-10-19T17:51:24.827Z,47.03
2018-10-19T17:53:53.370Z,52.07
2018-10-19T17:56:21.955Z,68.17
2018-10-19T17:58:50.494Z,70.83
2018-10-19T18:01:18.952Z,68.70
2018-10-19T18:03:47.595Z,71.37
2018-10-19T18:06:16.381Z,68.13
2018-10-19T18:08:45.011Z,88.67
2018-10-19T18:11:13.640Z,77.53
2018-10-19T18:13:42.244Z,79.40
2018-10-19T18:16:11.270Z,72.00
2018-10-19T18:18:39.965Z,58.00
2018-10-19T18:21:08.649Z,52.37
2018-10-19T18:23:37.272Z,48.23
2018-10-19T18:26:06.087Z,50.20
2018-10-19T18:28:34.746Z,47.80
2018-10-19T18:31:03.162Z,49.77
2018-10-19T18:33:31.977Z,52.53
2018-10-19T18:36:01.142Z,50.80
2018-10-19T18:38:29.603Z,49.00
2018-10-19T18:40:58.107Z,53.33
2018-10-19T18:43:26.657Z,67.60
2018-10-19T18:45:55.139Z,111.20
2018-10-19T18:48:23.557Z,60.40
2018-10-19T18:50:52.005Z,67.93
2018-10-19T18:53:20.751Z,65.73
2018-10-19T18:55:49.385Z,61.00
2018-10-19T18:58:17.830Z,57.67
2018-10-19T19:00:46.332Z,54.67
2018-10-19T19:03:14.876Z,50.87
2018-10-19T19:05:43.289Z,52.77
2018-10-19T19:08:11.807Z,50.90
2018-10-19T19:10:40.392Z,51.40
2018-10-19T19:13:14.162Z,54.23
2018-10-19T19:15:42.638Z,63.03
2018-10-19T19:18:11.084Z,65.63
2018-10-19T19:20:39.579Z,66.27
2018-10-19T19:23:08.117Z,63.70
2018-10-19T19:25:42.021Z,63.87
2018-10-19T19:28:10.527Z,51.77
2018-10-19T19:30:39.289Z,56.73
2018-10-19T19:33:13.039Z,56.97
2018-10-19T19:35:41.508Z,52.57
2018-10-19T19:38:10.042Z,53.53
2018-10-19T19:40:44.041Z,54.03
2018-10-19T19:43:12.503Z,53.00
2018-10-19T19:45:41.013Z,53.93
2018-10-19T19:48:14.770Z,61.30
2018-10-19T19:50:43.306Z,67.90
2018-10-19T19:53:11.813Z,71.03
2018-10-19T19:55:40.511Z,65.63
2018-10-19T19:58:09.133Z,62.40
2018-10-19T20:00:37.916Z,65.60
2018-10-19T20:03:06.427Z,63.47
2018-10-19T20:05:35.089Z,66.83
2018-10-19T20:08:03.595Z,59.70
2018-10-19T20:10:32.353Z,56.47
2018-10-19T20:13:01.076Z,57.00
2018-10-19T20:15:29.675Z,55.00
2018-10-19T20:17:58.129Z,55.97
2018-10-19T20:20:26.588Z,56.17
2018-10-19T20:22:55.103Z,54.77
2018-10-19T20:25:23.769Z,52.23
2018-10-19T20:27:52.208Z,53.83
2018-10-19T20:30:22.356Z,54.70
2018-10-19T20:32:50.829Z,55.23
2018-10-19T20:35:19.260Z,53.97
2018-10-19T20:37:47.760Z,56.93
2018-10-19T20:40:16.203Z,53.50
2018-10-19T20:42:44.662Z,54.70
2018-10-19T20:45:13.095Z,54.57
2018-10-19T20:47:41.599Z,57.10
2018-10-19T20:50:10.275Z,59.73
2018-10-19T20:52:38.877Z,68.13
2018-10-19T20:55:07.889Z,66.27
2018-10-19T20:57:36.411Z,60.87
2018-10-19T21:00:05.778Z,63.30
2018-10-19T21:02:34.192Z,61.77
2018-10-19T21:05:02.668Z,57.57
2018-10-19T21:07:31.209Z,56.07
2018-10-19T21:09:59.812Z,55.27
2018-10-19T21:12:28.252Z,56.20
2018-10-19T21:14:56.776Z,57.43
2018-10-19T21:17:25.224Z,56.23
2018-10-19T21:19:53.745Z,57.60
2018-10-19T21:22:22.297Z,52.80
2018-10-19T21:24:50.777Z,55.03
2018-10-19T21:27:19.262Z,57.23
2018-10-19T21:29:47.721Z,57.07
2018-10-19T21:32:16.377Z,55.50
2018-10-19T21:34:44.980Z,55.43
2018-10-19T21:37:13.386Z,55.90
2018-10-19T21:39:41.836Z,55.93
2018-10-19T21:42:10.260Z,54.70
2018-10-19T21:44:38.707Z,54.87
2018-10-19T21:47:07.182Z,52.63
2018-10-19T21:49:35.891Z,54.03
2018-10-19T21:52:04.478Z,53.37
2018-10-19T21:54:32.917Z,51.37
2018-10-19T21:57:01.420Z,52.60
2018-10-19T21:59:29.981Z,54.53
2018-10-19T22:01:58.524Z,52.73
2018-10-19T22:04:27.398Z,53.93
2018-10-19T22:06:55.850Z,54.07
2018-10-19T22:09:24.378Z,52.73
2018-10-19T22:11:52.844Z,56.37
2018-10-19T22:14:21.263Z,55.73
2018-10-19T22:16:49.717Z,53.27
2018-10-19T22:19:18.143Z,55.10
2018-10-19T22:21:46.655Z,53.70
2018-10-19T22:24:15.111Z,53.90
2018-10-19T22:26:43.674Z,55.43
2018-10-19T22:29:12.427Z,53.87
2018-10-19T22:31:41.137Z,55.37
2018-10-19T22:34:09.543Z,52.67
2018-10-19T22:36:38.032Z,54.83
2018-10-19T22:39:07.636Z,54.33
2018-10-19T22:41:36.412Z,53.27
2018-10-19T22:44:05.168Z,54.40
2018-10-19T22:46:33.619Z,54.67
2018-10-19T22:49:02.169Z,54.70
2018-10-19T22:51:30.780Z,55.40
2018-10-19T22:53:59.237Z,52.57
2018-10-19T22:56:27.689Z,55.10
2018-10-19T22:58:56.268Z,54.00
2018-10-19T23:01:24.987Z,55.07
2018-10-19T23:03:53.482Z,53.77
2018-10-19T23:06:21.935Z,53.50
2018-10-19T23:08:50.337Z,53.50
2018-10-19T23:11:18.925Z,54.40
2018-10-19T23:13:47.526Z,54.20
2018-10-19T23:16:15.976Z,55.50
2018-10-19T23:18:44.452Z,55.43
2018-10-19T23:21:12.895Z,54.17
2018-10-19T23:23:41.417Z,56.57
2018-10-19T23:26:09.891Z,56.53
2018-10-19T23:28:38.327Z,56.47
2018-10-19T23:31:06.839Z,54.73
2018-10-19T23:33:35.480Z,54.70
2018-10-19T23:36:03.950Z,53.33
2018-10-19T23:38:32.403Z,53.20
2018-10-19T23:41:01.537Z,53.60
2018-10-19T23:43:30.483Z,55.60
2018-10-19T23:45:58.976Z,54.13
2018-10-19T23:48:27.467Z,56.10
2018-10-19T23:50:55.959Z,52.60
2018-10-19T23:53:24.415Z,53.83
2018-10-19T23:55:52.863Z,53.10
2018-10-19T23:58:21.437Z,56.03
